Time;durP1;ratioP1;P1;durP2;ratioP2;P2;SDS_P1;SDS_P2;PMS_P1;PMS_P2;Temp;Humidity;BMP_temperature;BMP_pressure;BME280_temperature;BME280_humidity;BME280_pressure;Samples;Min_cycle;Max_cycle;Signal;HPM_P1;HPM_P2
2022/03/13 00:00:44;;;;;;;20.95;13.50;;;9.20;99.90;;;;;;4933440;28;20101;-61
2022/03/13 00:03:10;;;;;;;22.25;14.27;;;9.20;99.90;;;;;;4933378;29;20079;-60
2022/03/13 00:05:41;;;;;;;22.27;14.38;;;9.10;99.90;;;;;;4933148;29;20106;-61
2022/03/13 00:08:18;;;;;;;18.63;13.75;;;9.10;99.90;;;;;;4932093;28;20050;-61
2022/03/13 00:10:50;;;;;;;19.55;13.75;;;9.20;99.90;;;;;;4933466;28;20040;-61
2022/03/13 00:13:18;;;;;;;19.60;14.02;;;9.00;99.90;;;;;;4933328;28;20043;-62
2022/03/13 00:15:45;;;;;;;18.55;13.98;;;9.10;99.90;;;;;;4933078;29;20047;-57
2022/03/13 00:18:12;;;;;;;21.88;14.38;;;9.10;99.90;;;;;;4933123;28;20043;-56
2022/03/13 00:20:38;;;;;;;27.35;16.00;;;9.10;99.90;;;;;;4932082;28;20126;-57
2022/03/13 00:23:05;;;;;;;19.52;13.70;;;8.90;99.90;;;;;;4933380;28;20051;-57
2022/03/13 00:25:31;;;;;;;19.88;13.13;;;9.10;99.90;;;;;;4933439;29;20055;-56
2022/03/13 00:27:57;;;;;;;26.25;14.40;;;9.20;99.90;;;;;;4933117;29;20047;-56
2022/03/13 00:30:23;;;;;;;19.15;13.65;;;9.20;99.90;;;;;;4931905;29;20040;-56
2022/03/13 00:32:49;;;;;;;19.35;13.52;;;9.10;99.90;;;;;;4939834;28;20063;-57
2022/03/13 00:35:15;;;;;;;22.88;15.00;;;9.10;99.90;;;;;;4952070;29;20047;-56
2022/03/13 00:37:41;;;;;;;19.20;14.23;;;9.10;99.90;;;;;;4937109;29;20043;-56
2022/03/13 00:40:08;;;;;;;24.02;14.85;;;9.10;99.90;;;;;;4955322;28;20516;-56
2022/03/13 00:42:34;;;;;;;18.13;13.35;;;9.10;99.90;;;;;;4955385;29;20058;-56
2022/03/13 00:45:00;;;;;;;20.50;14.07;;;9.20;99.90;;;;;;4955227;28;20043;-56
2022/03/13 00:47:25;;;;;;;20.10;14.52;;;9.10;99.90;;;;;;4955217;28;20082;-56
2022/03/13 00:49:51;;;;;;;22.33;13.75;;;9.10;99.90;;;;;;4955340;28;20039;-55
2022/03/13 00:52:17;;;;;;;23.80;14.73;;;9.00;99.90;;;;;;4955385;28;20105;-55
2022/03/13 00:54:43;;;;;;;18.88;13.98;;;8.90;99.90;;;;;;4955141;29;20043;-53
2022/03/13 00:57:09;;;;;;;19.13;14.38;;;8.90;99.90;;;;;;4955381;29;20050;-56
2022/03/13 00:59:35;;;;;;;16.27;12.35;;;9.10;99.90;;;;;;4955327;28;20031;-56
2022/03/13 01:02:01;;;;;;;20.33;12.90;;;9.20;99.90;;;;;;4955225;28;20040;-56
2022/03/13 01:04:27;;;;;;;20.55;14.07;;;9.00;99.90;;;;;;4955187;29;20039;-55
2022/03/13 01:06:53;;;;;;;18.92;14.07;;;9.10;99.90;;;;;;4955271;28;20489;-56
2022/03/13 01:09:18;;;;;;;18.55;13.30;;;9.10;99.90;;;;;;4937829;28;20046;-56
2022/03/13 01:11:44;;;;;;;20.85;13.75;;;8.90;99.90;;;;;;4955124;28;20043;-56
2022/03/13 01:14:10;;;;;;;21.25;14.02;;;9.10;99.90;;;;;;4954913;29;20035;-58
2022/03/13 01:16:39;;;;;;;23.60;13.95;;;8.90;99.90;;;;;;4954728;29;20413;-57
2022/03/13 01:19:05;;;;;;;22.38;14.50;;;9.00;99.90;;;;;;4955083;29;20043;-59
2022/03/13 01:21:34;;;;;;;19.50;13.55;;;9.10;99.90;;;;;;4955136;28;20043;-58
2022/03/13 01:23:59;;;;;;;21.90;13.73;;;9.00;99.90;;;;;;4954905;28;20535;-58
2022/03/13 01:26:25;;;;;;;22.45;14.60;;;8.90;99.90;;;;;;4937841;28;20130;-58
2022/03/13 01:28:52;;;;;;;19.90;13.25;;;8.80;99.90;;;;;;4937778;29;20070;-58
2022/03/13 01:31:21;;;;;;;19.98;13.57;;;9.00;99.90;;;;;;4954444;29;20047;-59
2022/03/13 01:33:48;;;;;;;22.88;14.18;;;9.00;99.90;;;;;;4954510;29;20047;-58
2022/03/13 01:36:13;;;;;;;23.52;12.63;;;9.00;99.90;;;;;;4953318;28;20493;-58
2022/03/13 01:38:40;;;;;;;19.50;14.00;;;8.90;99.90;;;;;;4954390;29;20055;-58
2022/03/13 01:41:06;;;;;;;19.05;13.00;;;9.10;99.90;;;;;;4954760;28;20039;-58
2022/03/13 01:43:32;;;;;;;20.27;13.75;;;9.00;99.90;;;;;;4937296;29;20512;-58
2022/03/13 01:45:59;;;;;;;23.13;13.90;;;9.00;99.90;;;;;;4954404;28;20039;-58
2022/03/13 01:48:26;;;;;;;20.90;13.68;;;8.90;99.90;;;;;;4954306;28;20585;-58
2022/03/13 01:50:52;;;;;;;19.02;13.45;;;8.80;99.90;;;;;;4954348;28;20035;-59
2022/03/13 01:53:21;;;;;;;17.85;13.30;;;9.00;99.90;;;;;;4954627;29;20054;-58
2022/03/13 01:55:48;;;;;;;17.40;13.40;;;8.90;99.90;;;;;;4954206;28;20043;-59
2022/03/13 01:58:14;;;;;;;20.67;13.00;;;8.90;99.90;;;;;;4954213;29;20084;-56
2022/03/13 02:00:40;;;;;;;19.85;13.35;;;8.80;99.90;;;;;;4954391;28;20031;-57
2022/03/13 02:03:06;;;;;;;23.05;14.40;;;8.90;99.90;;;;;;4954530;29;20440;-56
2022/03/13 02:05:36;;;;;;;20.88;13.50;;;8.80;99.90;;;;;;4954294;28;20049;-56
2022/03/13 02:08:21;;;;;;;18.95;13.48;;;9.20;99.90;;;;;;4954418;29;20130;-56
2022/03/13 02:10:48;;;;;;;20.52;13.85;;;8.80;99.90;;;;;;4954156;28;20049;-57
2022/03/13 02:13:19;;;;;;;22.10;13.70;;;8.70;99.90;;;;;;4953994;29;20538;-57
2022/03/13 02:15:45;;;;;;;22.77;14.35;;;8.70;99.90;;;;;;4953966;29;20528;-54
2022/03/13 02:18:11;;;;;;;18.73;13.52;;;8.90;99.90;;;;;;4953863;29;20074;-56
2022/03/13 02:20:54;;;;;;;20.65;14.07;;;8.80;99.90;;;;;;4937321;29;20047;-56
2022/03/13 02:23:22;;;;;;;20.63;13.20;;;8.80;99.90;;;;;;4953857;28;20035;-57
2022/03/13 02:25:50;;;;;;;20.77;13.60;;;8.70;99.90;;;;;;4953830;29;20489;-56
2022/03/13 02:28:19;;;;;;;25.52;14.45;;;8.60;99.90;;;;;;4953862;29;20046;-56
2022/03/13 02:30:45;;;;;;;22.67;13.70;;;8.90;99.90;;;;;;4952737;29;20047;-56
2022/03/13 02:33:11;;;;;;;18.08;12.48;;;9.00;99.90;;;;;;4953594;29;20131;-55
2022/03/13 02:35:36;;;;;;;20.58;12.88;;;9.00;99.90;;;;;;4953645;29;20472;-56
2022/03/13 02:38:02;;;;;;;18.23;13.13;;;8.90;99.90;;;;;;4953770;29;20036;-56
2022/03/13 02:40:28;;;;;;;18.60;12.80;;;9.00;99.90;;;;;;4953801;28;20071;-56
2022/03/13 02:42:56;;;;;;;18.42;12.88;;;9.00;99.90;;;;;;4953547;29;20067;-56
2022/03/13 02:45:35;;;;;;;19.42;13.70;;;8.90;99.90;;;;;;4936576;28;20047;-56
2022/03/13 02:48:03;;;;;;;19.42;13.32;;;8.90;99.90;;;;;;4953700;28;20054;-57
2022/03/13 02:50:29;;;;;;;20.55;13.55;;;;;;;;;;4953414;28;20039;-58
2022/03/13 02:52:55;;;;;;;23.40;15.32;;;9.00;99.90;;;;;;4953650;29;20486;-57
2022/03/13 02:55:21;;;;;;;21.00;14.13;;;9.00;99.90;;;;;;4953553;28;20042;-56
2022/03/13 02:57:46;;;;;;;23.38;14.38;;;8.90;99.90;;;;;;4936281;29;20072;-56
2022/03/13 03:00:14;;;;;;;18.58;13.02;;;9.00;99.90;;;;;;4952970;28;20036;-57
2022/03/13 03:02:39;;;;;;;20.83;13.75;;;9.00;99.90;;;;;;4953332;29;20375;-56
2022/03/13 03:05:08;;;;;;;24.52;14.48;;;8.90;99.90;;;;;;4936294;28;20096;-56
2022/03/13 03:07:35;;;;;;;18.85;12.90;;;8.90;99.90;;;;;;4953241;29;20493;-62
2022/03/13 03:10:02;;;;;;;22.85;13.02;;;8.90;99.90;;;;;;4953447;28;20043;-62
2022/03/13 03:12:28;;;;;;;18.90;12.63;;;8.80;99.90;;;;;;4953266;29;20047;-58
2022/03/13 03:14:54;;;;;;;21.05;13.98;;;9.10;99.90;;;;;;4953217;28;20101;-58
2022/03/13 03:17:20;;;;;;;19.63;13.70;;;9.10;99.90;;;;;;4953327;29;20067;-58
2022/03/13 03:19:45;;;;;;;19.35;12.80;;;9.00;99.90;;;;;;4953078;28;20124;-60
2022/03/13 03:22:12;;;;;;;22.08;14.30;;;9.00;99.90;;;;;;4953207;28;20039;-58
2022/03/13 03:24:38;;;;;;;21.08;13.80;;;9.00;99.90;;;;;;4953311;29;20161;-58
2022/03/13 03:27:04;;;;;;;19.67;14.00;;;9.10;99.90;;;;;;4953212;29;20066;-58
2022/03/13 03:29:30;;;;;;;22.52;14.40;;;9.00;99.90;;;;;;4953209;29;20089;-58
2022/03/13 03:31:57;;;;;;;19.77;13.07;;;9.00;99.90;;;;;;4953075;28;20118;-58
2022/03/13 03:34:26;;;;;;;20.15;12.57;;;9.00;99.90;;;;;;4952847;28;20074;-60
2022/03/13 03:36:54;;;;;;;20.98;13.75;;;9.10;99.90;;;;;;4952819;29;20122;-58
2022/03/13 03:39:22;;;;;;;18.75;13.25;;;9.00;99.90;;;;;;4953042;29;20039;-58
2022/03/13 03:41:50;;;;;;;18.88;13.27;;;9.00;99.90;;;;;;4952897;28;20416;-58
2022/03/13 03:44:17;;;;;;;21.45;14.00;;;8.80;99.90;;;;;;4952669;28;20039;-58
2022/03/13 03:46:45;;;;;;;20.40;13.80;;;8.80;99.90;;;;;;4935509;29;20122;-58
2022/03/13 03:49:10;;;;;;;18.60;12.90;;;8.80;99.90;;;;;;4951523;29;20047;-58
2022/03/13 03:51:38;;;;;;;20.50;13.07;;;8.70;99.90;;;;;;4952803;28;20112;-58
2022/03/13 03:54:05;;;;;;;17.05;12.80;;;8.70;99.90;;;;;;4952864;29;20043;-58
2022/03/13 03:56:31;;;;;;;18.17;12.48;;;8.90;99.90;;;;;;4952767;28;20405;-58
2022/03/13 03:58:56;;;;;;;19.23;13.27;;;8.50;99.90;;;;;;4952722;29;20043;-58
2022/03/13 04:01:22;;;;;;;18.85;12.38;;;8.90;99.90;;;;;;4952354;28;20046;-58
2022/03/13 04:03:48;;;;;;;23.30;14.25;;;8.70;99.90;;;;;;4952400;29;20043;-58
2022/03/13 04:06:15;;;;;;;22.50;14.57;;;8.60;99.90;;;;;;4952370;29;20054;-58
2022/03/13 04:08:41;;;;;;;19.17;13.48;;;8.40;99.90;;;;;;4952623;29;20043;-58
2022/03/13 04:11:08;;;;;;;18.75;11.95;;;8.40;99.90;;;;;;4951208;29;20046;-58
2022/03/13 04:13:38;;;;;;;22.77;12.85;;;8.50;99.90;;;;;;4952367;29;20531;-61
2022/03/13 04:16:06;;;;;;;17.73;12.55;;;8.60;99.90;;;;;;4952231;29;20043;-61
2022/03/13 04:18:32;;;;;;;20.70;14.68;;;8.50;99.90;;;;;;4952429;29;20051;-61
2022/03/13 04:20:59;;;;;;;20.30;13.30;;;8.60;99.90;;;;;;4952122;29;20055;-62
2022/03/13 04:23:26;;;;;;;19.30;13.57;;;8.50;99.90;;;;;;4951036;29;20046;-62
2022/03/13 04:25:52;;;;;;;21.27;13.27;;;8.40;99.90;;;;;;4952035;29;20460;-61
2022/03/13 04:28:18;;;;;;;23.13;14.35;;;8.50;99.90;;;;;;4952177;28;20039;-62
2022/03/13 04:30:45;;;;;;;18.92;13.98;;;8.50;99.90;;;;;;4952238;28;20043;-61
2022/03/13 04:33:11;;;;;;;24.13;14.73;;;8.50;99.90;;;;;;4934719;28;20058;-61
2022/03/13 04:35:37;;;;;;;20.98;13.65;;;8.60;99.90;;;;;;4952207;29;20052;-62
2022/03/13 04:38:02;;;;;;;17.38;11.40;;;8.50;99.90;;;;;;4951514;29;20051;-61
2022/03/13 04:40:28;;;;;;;18.42;14.07;;;8.50;99.90;;;;;;4951641;29;20149;-61
2022/03/13 04:42:53;;;;;;;19.92;12.88;;;8.40;99.90;;;;;;4952117;29;20062;-61
2022/03/13 04:45:19;;;;;;;23.88;14.32;;;8.40;99.90;;;;;;4934802;28;20047;-62
2022/03/13 04:47:45;;;;;;;19.70;12.95;;;8.40;99.90;;;;;;4952079;28;20386;-62
2022/03/13 04:50:10;;;;;;;21.98;14.20;;;8.30;99.90;;;;;;4952078;28;20506;-62
2022/03/13 04:52:36;;;;;;;23.17;14.15;;;8.60;99.90;;;;;;4952033;28;20055;-62
2022/03/13 04:55:03;;;;;;;22.83;13.85;;;8.30;99.90;;;;;;4951856;29;20044;-61
2022/03/13 04:57:28;;;;;;;22.35;14.02;;;8.30;99.90;;;;;;4951925;28;20081;-62
2022/03/13 04:59:54;;;;;;;20.45;13.75;;;8.30;99.90;;;;;;4951919;28;20039;-61
2022/03/13 05:02:19;;;;;;;22.00;14.00;;;8.20;99.90;;;;;;4934778;28;20046;-62
2022/03/13 05:04:45;;;;;;;19.67;13.52;;;8.50;99.90;;;;;;4951739;28;20071;-61
2022/03/13 05:07:11;;;;;;;21.40;13.75;;;8.10;99.90;;;;;;4951316;29;20039;-62
2022/03/13 05:09:37;;;;;;;20.17;13.38;;;;;;;;;;4941471;28;20097;-61
2022/03/13 05:12:05;;;;;;;21.33;15.40;;;8.30;99.90;;;;;;4970938;28;20076;-62
2022/03/13 05:14:31;;;;;;;20.65;13.82;;;8.10;99.90;;;;;;4953391;28;20047;-62
2022/03/13 05:16:57;;;;;;;19.15;13.95;;;8.00;99.90;;;;;;4953159;28;20511;-62
2022/03/13 05:19:23;;;;;;;20.58;13.13;;;8.00;99.90;;;;;;4970352;28;20039;-62
2022/03/13 05:21:49;;;;;;;20.67;13.38;;;;;;;;;;4965780;28;20560;-60
2022/03/13 05:24:14;;;;;;;20.75;13.75;;;8.00;99.90;;;;;;4954176;28;20042;-62
2022/03/13 05:26:40;;;;;;;20.58;13.93;;;8.00;99.90;;;;;;4970464;28;20066;-62
2022/03/13 05:29:06;;;;;;;20.88;14.02;;;;;;;;;;4972637;28;20099;-61
2022/03/13 05:31:31;;;;;;;22.55;13.90;;;8.00;99.90;;;;;;4970097;28;20053;-62
2022/03/13 05:33:57;;;;;;;19.98;14.35;;;7.90;99.90;;;;;;4972565;28;20047;-62
2022/03/13 05:36:23;;;;;;;20.95;14.48;;;;;;;;;;4955307;28;20129;-56
2022/03/13 05:38:48;;;;;;;22.83;14.52;;;7.90;99.90;;;;;;4972387;28;20039;-57
2022/03/13 05:41:14;;;;;;;18.27;13.52;;;7.90;99.90;;;;;;4950188;28;20118;-56
2022/03/13 05:43:42;;;;;;;19.73;13.50;;;7.90;99.90;;;;;;4963433;28;20095;-55
2022/03/13 05:46:07;;;;;;;20.85;12.27;;;8.00;99.90;;;;;;4967720;28;20138;-55
2022/03/13 05:48:33;;;;;;;22.98;13.52;;;8.10;99.90;;;;;;4972021;28;20121;-54
2022/03/13 05:50:58;;;;;;;20.13;13.10;;;8.20;99.90;;;;;;4969928;28;20073;-57
2022/03/13 05:53:24;;;;;;;22.38;14.20;;;;;;;;;;4972631;28;20171;-59
2022/03/13 05:55:50;;;;;;;19.08;13.32;;;8.10;99.90;;;;;;4971954;28;20036;-57
2022/03/13 05:58:15;;;;;;;18.30;13.40;;;8.00;99.90;;;;;;4955267;28;20065;-57
2022/03/13 06:00:41;;;;;;;22.60;13.10;;;7.80;99.90;;;;;;4952431;28;20126;-58
2022/03/13 06:03:08;;;;;;;20.05;13.60;;;8.00;99.90;;;;;;4972104;28;20127;-57
2022/03/13 06:05:35;;;;;;;18.50;12.98;;;7.80;99.90;;;;;;4973150;28;20118;-56
2022/03/13 06:08:00;;;;;;;21.08;13.57;;;8.10;99.90;;;;;;4972393;28;20035;-54
2022/03/13 06:10:26;;;;;;;18.58;13.02;;;;;;;;;;4971596;28;20698;-55
2022/03/13 06:12:52;;;;;;;23.38;14.07;;;8.10;99.90;;;;;;4972200;28;20126;-56
2022/03/13 06:15:17;;;;;;;21.50;14.85;;;8.10;99.90;;;;;;4972024;28;20146;-57
2022/03/13 06:17:45;;;;;;;21.83;14.38;;;8.00;99.90;;;;;;4969669;28;20049;-56
2022/03/13 06:20:13;;;;;;;19.35;13.73;;;8.10;99.90;;;;;;4948729;28;20133;-56
2022/03/13 06:22:43;;;;;;;20.60;14.55;;;8.20;99.90;;;;;;4970404;28;20049;-60
2022/03/13 06:25:10;;;;;;;20.83;13.80;;;8.20;99.90;;;;;;4973408;28;20447;-57
2022/03/13 06:27:37;;;;;;;20.15;14.00;;;8.30;99.90;;;;;;4956030;28;20050;-57
2022/03/13 06:30:08;;;;;;;20.95;13.90;;;8.30;99.90;;;;;;4955789;28;20058;-57
2022/03/13 06:32:34;;;;;;;20.20;12.90;;;;;;;;;;4973157;28;20054;-57
2022/03/13 06:35:00;;;;;;;21.92;14.35;;;;;;;;;;4971611;28;20503;-62
2022/03/13 06:37:26;;;;;;;19.92;13.85;;;8.20;99.90;;;;;;4955361;28;20122;-57
2022/03/13 06:39:51;;;;;;;22.23;12.90;;;8.20;99.90;;;;;;4972942;28;20565;-55
2022/03/13 06:42:18;;;;;;;21.13;13.45;;;8.20;99.90;;;;;;4972922;28;20049;-56
2022/03/13 06:44:44;;;;;;;22.33;13.80;;;8.10;99.90;;;;;;4968043;28;20043;-57
2022/03/13 06:47:09;;;;;;;19.40;13.02;;;8.00;99.90;;;;;;4953868;29;20042;-57
2022/03/13 06:49:36;;;;;;;20.80;13.98;;;8.10;99.90;;;;;;4953229;29;20464;-56
2022/03/13 06:52:01;;;;;;;20.48;13.40;;;7.90;99.90;;;;;;4952505;28;20156;-56
2022/03/13 06:54:27;;;;;;;23.13;14.40;;;8.00;99.90;;;;;;4953595;28;20042;-57
2022/03/13 06:56:53;;;;;;;22.75;13.48;;;8.00;99.90;;;;;;4953551;28;20184;-60
2022/03/13 06:59:18;;;;;;;20.80;14.27;;;7.90;99.90;;;;;;4968161;28;20555;-62
2022/03/13 07:01:44;;;;;;;22.25;14.43;;;7.90;99.90;;;;;;4955561;28;20074;-62
2022/03/13 07:04:11;;;;;;;22.65;13.60;;;7.80;99.90;;;;;;4972527;28;20039;-62
2022/03/13 07:06:37;;;;;;;20.08;13.88;;;;;;;;;;4971802;28;20049;-57
2022/03/13 07:09:03;;;;;;;25.48;15.63;;;8.00;99.90;;;;;;4970926;28;20043;-57
2022/03/13 07:11:30;;;;;;;21.92;14.43;;;8.00;99.90;;;;;;4972492;28;20047;-61
2022/03/13 07:13:56;;;;;;;21.73;13.95;;;;;;;;;;4972468;28;20035;-60
2022/03/13 07:16:23;;;;;;;21.23;13.88;;;8.20;99.90;;;;;;4971823;28;20141;-60
2022/03/13 07:18:49;;;;;;;21.15;13.48;;;8.20;99.90;;;;;;4972541;28;20039;-60
2022/03/13 07:21:14;;;;;;;18.85;13.02;;;8.20;99.90;;;;;;4972438;28;20066;-60
2022/03/13 07:23:40;;;;;;;20.30;13.13;;;;;;;;;;4959013;28;20094;-64
2022/03/13 07:26:06;;;;;;;20.25;13.52;;;8.20;99.90;;;;;;4961150;28;20051;-64
2022/03/13 07:28:32;;;;;;;19.60;12.68;;;8.20;99.90;;;;;;4953995;28;20043;-64
2022/03/13 07:30:58;;;;;;;20.35;13.38;;;;;;;;;;4964713;28;20135;-64
2022/03/13 07:33:24;;;;;;;21.67;12.70;;;8.30;99.90;;;;;;4970934;28;20101;-65
2022/03/13 07:35:50;;;;;;;18.70;12.70;;;8.30;99.90;;;;;;4970915;28;20121;-64
2022/03/13 07:38:16;;;;;;;20.05;12.18;;;8.30;99.90;;;;;;4970768;28;20441;-63
2022/03/13 07:40:43;;;;;;;22.95;13.85;;;8.30;99.90;;;;;;4970895;28;20034;-62
2022/03/13 07:43:09;;;;;;;19.33;13.00;;;8.30;99.90;;;;;;4965958;28;20047;-64
2022/03/13 07:45:35;;;;;;;19.80;13.20;;;8.30;99.90;;;;;;4959865;28;20057;-63
2022/03/13 07:48:01;;;;;;;25.80;13.55;;;8.40;99.90;;;;;;4970969;28;20039;-64
2022/03/13 07:50:30;;;;;;;16.67;12.32;;;8.40;99.90;;;;;;4970231;28;20090;-64
2022/03/13 07:52:56;;;;;;;17.13;11.75;;;8.50;99.90;;;;;;4953424;28;20123;-65
2022/03/13 07:55:23;;;;;;;19.52;12.27;;;8.50;99.90;;;;;;4970522;28;20460;-64
2022/03/13 07:57:49;;;;;;;18.98;12.05;;;8.70;99.90;;;;;;4937509;28;20047;-64
2022/03/13 08:00:17;;;;;;;17.83;11.70;;;8.70;99.90;;;;;;4952763;28;20693;-64
2022/03/13 08:02:47;;;;;;;17.30;12.00;;;8.70;99.90;;;;;;4970510;28;20039;-63
2022/03/13 08:05:14;;;;;;;14.85;10.68;;;8.60;99.90;;;;;;4970683;28;20047;-64
2022/03/13 08:07:40;;;;;;;17.92;12.13;;;8.70;99.90;;;;;;5043835;28;20106;-64
2022/03/13 08:10:06;;;;;;;15.88;9.50;;;8.90;99.90;;;;;;5030789;28;20435;-64
2022/03/13 08:12:31;;;;;;;19.23;12.40;;;8.80;99.90;;;;;;4953069;28;20066;-65
2022/03/13 08:14:57;;;;;;;18.15;12.15;;;8.80;99.90;;;;;;4965754;28;20086;-65
2022/03/13 08:17:22;;;;;;;18.85;12.15;;;9.10;99.90;;;;;;4970535;28;20043;-64
2022/03/13 08:19:48;;;;;;;16.60;12.18;;;9.10;99.90;;;;;;4969766;28;20039;-64
2022/03/13 08:22:16;;;;;;;16.20;10.48;;;9.40;99.90;;;;;;4995501;28;20494;-64
2022/03/13 08:24:41;;;;;;;17.10;11.52;;;9.80;99.90;;;;;;5033893;28;20057;-64
2022/03/13 08:27:07;;;;;;;15.93;11.32;;;10.20;99.90;;;;;;4978622;28;20400;-64
2022/03/13 08:29:33;;;;;;;16.85;11.90;;;;;;;;;;4972188;28;20047;-64
2022/03/13 08:31:58;;;;;;;16.67;11.23;;;10.60;99.90;;;;;;5051530;28;20048;-65
2022/03/13 08:34:27;;;;;;;16.67;10.90;;;;;;;;;;5020427;28;20047;-64
2022/03/13 08:36:53;;;;;;;17.30;12.30;;;11.30;99.90;;;;;;4937074;29;20201;-65
2022/03/13 08:39:19;;;;;;;15.95;11.48;;;;;;;;;;4960067;28;20490;-65
2022/03/13 08:41:45;;;;;;;15.00;11.07;;;13.60;99.90;;;;;;4964813;28;20062;-63
2022/03/13 08:44:10;;;;;;;13.13;7.90;;;14.40;99.90;;;;;;4950362;28;20077;-64
2022/03/13 08:46:38;;;;;;;16.90;11.07;;;14.40;99.90;;;;;;4968443;28;20058;-64
2022/03/13 08:49:04;;;;;;;19.85;11.88;;;15.60;99.90;;;;;;4966504;28;20046;-63
2022/03/13 08:51:29;;;;;;;15.70;10.88;;;15.00;98.80;;;;;;4968862;28;20051;-63
2022/03/13 08:53:56;;;;;;;15.57;10.45;;;13.50;98.90;;;;;;4968780;28;20396;-64
2022/03/13 08:56:21;;;;;;;15.43;10.88;;;13.60;98.10;;;;;;4968607;28;20109;-64
2022/03/13 08:58:47;;;;;;;18.00;11.30;;;12.70;99.90;;;;;;4970191;28;20158;-64
2022/03/13 09:01:14;;;;;;;18.00;10.85;;;;;;;;;;4953521;28;20558;-62
2022/03/13 09:03:40;;;;;;;18.17;10.95;;;12.60;99.90;;;;;;4968645;28;20039;-63
2022/03/13 09:06:06;;;;;;;17.50;11.57;;;12.80;99.90;;;;;;4971098;28;20035;-62
2022/03/13 09:08:32;;;;;;;16.58;10.55;;;;;;;;;;4969841;28;20481;-63
2022/03/13 09:10:58;;;;;;;15.65;10.27;;;13.40;99.90;;;;;;4968641;28;20085;-63
2022/03/13 09:13:24;;;;;;;19.85;12.13;;;13.40;99.90;;;;;;4968846;28;20085;-65
2022/03/13 09:15:50;;;;;;;17.17;10.15;;;13.40;99.90;;;;;;4967373;28;20568;-64
2022/03/13 09:18:16;;;;;;;16.65;11.50;;;13.60;99.90;;;;;;4969592;28;20451;-64
2022/03/13 09:20:42;;;;;;;15.10;9.48;;;13.80;99.40;;;;;;4951930;28;20042;-65
2022/03/13 09:23:07;;;;;;;17.60;11.40;;;14.50;99.20;;;;;;4969636;28;20415;-65
2022/03/13 09:25:34;;;;;;;14.68;10.60;;;15.80;98.80;;;;;;4952360;28;20042;-64
2022/03/13 09:28:00;;;;;;;14.55;10.18;;;15.60;98.40;;;;;;4967328;28;20538;-64
2022/03/13 09:30:26;;;;;;;13.63;10.45;;;16.40;97.60;;;;;;4948573;28;20071;-64
2022/03/13 09:32:52;;;;;;;17.52;11.40;;;16.30;96.20;;;;;;4950559;28;20101;-65
2022/03/13 09:35:17;;;;;;;15.75;10.57;;;17.20;95.90;;;;;;4969232;28;20074;-64
2022/03/13 09:37:43;;;;;;;15.02;11.13;;;17.90;94.60;;;;;;4969457;28;20043;-65
2022/03/13 09:40:10;;;;;;;16.58;12.02;;;18.50;93.60;;;;;;4952665;28;20554;-64
2022/03/13 09:42:37;;;;;;;14.35;10.82;;;19.10;93.20;;;;;;4977229;28;20047;-65
2022/03/13 09:45:03;;;;;;;13.63;9.93;;;19.00;92.10;;;;;;4949192;28;20404;-65
2022/03/13 09:47:29;;;;;;;16.88;10.25;;;19.70;91.10;;;;;;4952024;28;20051;-65
2022/03/13 09:49:55;;;;;;;14.90;10.85;;;19.80;90.40;;;;;;4951106;28;20542;-65
2022/03/13 09:52:20;;;;;;;17.70;10.52;;;20.70;89.90;;;;;;4948749;28;20047;-65
2022/03/13 09:54:46;;;;;;;13.82;10.30;;;20.90;89.40;;;;;;4963961;28;20089;-65
2022/03/13 09:57:12;;;;;;;17.52;10.13;;;21.20;88.10;;;;;;4961051;28;20130;-66
2022/03/13 09:59:38;;;;;;;16.95;10.30;;;21.70;85.10;;;;;;4965607;28;20042;-66
2022/03/13 10:02:06;;;;;;;13.65;10.35;;;21.90;84.20;;;;;;4967480;28;20031;-66
2022/03/13 10:04:32;;;;;;;13.88;10.57;;;22.20;83.90;;;;;;4968670;28;20047;-66
2022/03/13 10:07:10;;;;;;;15.10;11.00;;;22.60;83.10;;;;;;4963518;28;20415;-66
2022/03/13 10:09:37;;;;;;;14.50;10.98;;;23.00;81.70;;;;;;4947436;28;20118;-66
2022/03/13 10:12:08;;;;;;;13.98;10.30;;;23.20;81.10;;;;;;4950793;28;20055;-66
2022/03/13 10:14:35;;;;;;;17.13;11.32;;;23.20;80.40;;;;;;4948413;28;20454;-66
2022/03/13 10:17:01;;;;;;;16.55;10.68;;;23.90;79.30;;;;;;4968453;28;20055;-66
2022/03/13 10:19:27;;;;;;;14.88;10.73;;;24.10;78.40;;;;;;4961030;28;20392;-66
2022/03/13 10:22:01;;;;;;;18.95;10.68;;;24.30;78.50;;;;;;4950715;28;20082;-66
2022/03/13 10:24:27;;;;;;;15.55;11.05;;;24.50;78.10;;;;;;4957260;28;20035;-66
2022/03/13 10:27:13;;;;;;;14.80;11.13;;;24.60;76.60;;;;;;4941056;29;20409;-66
2022/03/13 10:29:39;;;;;;;16.13;11.00;;;24.50;77.40;;;;;;4950855;28;20539;-66
2022/03/13 10:32:05;;;;;;;16.50;11.65;;;24.30;76.00;;;;;;4951426;28;20050;-64
2022/03/13 10:34:32;;;;;;;15.30;11.93;;;24.20;76.00;;;;;;5003224;28;20052;-63
2022/03/13 10:36:58;;;;;;;14.70;11.50;;;24.20;76.40;;;;;;5050747;28;20049;-63
2022/03/13 10:39:24;;;;;;;15.40;11.43;;;24.10;76.90;;;;;;5022391;28;20044;-64
2022/03/13 10:42:03;;;;;;;15.40;10.60;;;24.30;77.10;;;;;;4949010;28;20125;-61
2022/03/13 10:44:34;;;;;;;16.42;11.65;;;24.30;76.20;;;;;;4958344;28;20593;-61
2022/03/13 10:47:05;;;;;;;16.45;11.52;;;23.80;76.40;;;;;;4967783;28;20414;-63
2022/03/13 10:49:42;;;;;;;15.63;11.35;;;22.50;77.40;;;;;;4949551;28;20062;-63
2022/03/13 10:52:29;;;;;;;18.52;11.63;;;21.70;80.00;;;;;;4965123;28;20038;-63
2022/03/13 10:55:15;;;;;;;17.05;11.85;;;20.60;79.20;;;;;;4963613;28;20566;-63
2022/03/13 10:57:55;;;;;;;16.00;11.50;;;19.60;82.50;;;;;;4933441;28;20416;-63
2022/03/13 11:00:22;;;;;;;17.70;12.50;;;19.10;82.50;;;;;;4967603;28;20038;-63
2022/03/13 11:02:52;;;;;;;18.10;12.48;;;18.20;84.40;;;;;;4967275;28;20519;-62
2022/03/13 11:05:17;;;;;;;17.38;12.07;;;18.20;85.10;;;;;;4950182;28;20092;-63
2022/03/13 11:07:43;;;;;;;16.92;11.75;;;17.80;86.40;;;;;;4966491;28;20062;-64
2022/03/13 11:10:11;;;;;;;16.52;11.73;;;17.20;87.70;;;;;;4948018;28;20047;-64
2022/03/13 11:12:38;;;;;;;18.98;12.10;;;16.90;88.00;;;;;;4949664;28;20049;-62
2022/03/13 11:15:06;;;;;;;18.33;11.38;;;16.80;88.40;;;;;;4950103;28;20051;-62
2022/03/13 11:17:33;;;;;;;17.38;12.32;;;16.50;89.10;;;;;;4952437;28;20514;-62
2022/03/13 11:20:01;;;;;;;17.75;11.20;;;16.60;89.50;;;;;;4950841;28;20053;-62
2022/03/13 11:22:28;;;;;;;14.35;10.07;;;16.50;89.90;;;;;;4999282;28;20047;-62
2022/03/13 11:25:00;;;;;;;14.63;9.65;;;16.60;90.10;;;;;;4986512;28;20457;-62
2022/03/13 11:27:26;;;;;;;14.05;10.25;;;14.50;90.00;;;;;;4964120;28;20100;-63
2022/03/13 11:29:54;;;;;;;14.40;10.95;;;16.30;90.50;;;;;;4960141;28;20041;-62
2022/03/13 11:32:40;;;;;;;14.10;9.93;;;16.00;91.00;;;;;;4966644;28;20042;-63
2022/03/13 11:35:13;;;;;;;14.70;10.70;;;16.00;90.50;;;;;;4935380;28;20054;-62
2022/03/13 11:37:40;;;;;;;19.05;11.88;;;15.90;91.10;;;;;;4961783;28;20720;-62
2022/03/13 11:40:08;;;;;;;16.38;11.00;;;15.70;90.70;;;;;;4968039;28;20125;-63
2022/03/13 11:43:13;;;;;;;16.27;12.23;;;16.00;91.00;;;;;;4946798;28;20043;-62
2022/03/13 11:45:40;;;;;;;14.30;9.55;;;16.00;90.70;;;;;;4946834;28;20066;-62
2022/03/13 11:48:14;;;;;;;14.80;10.25;;;16.00;91.20;;;;;;4969992;28;20035;-62
2022/03/13 11:50:54;;;;;;;14.13;10.52;;;15.90;91.30;;;;;;4987981;28;20037;-61
2022/03/13 11:53:29;;;;;;;16.45;10.73;;;16.10;91.00;;;;;;4985102;28;20092;-61
2022/03/13 11:55:58;;;;;;;16.92;11.15;;;16.10;90.20;;;;;;4949225;28;20138;-61
2022/03/13 11:58:47;;;;;;;14.63;9.95;;;16.10;90.90;;;;;;4967571;28;20122;-62
2022/03/13 12:01:23;;;;;;;16.20;10.77;;;16.20;90.50;;;;;;4939447;28;20042;-63
2022/03/13 12:04:01;;;;;;;14.80;10.63;;;16.00;91.20;;;;;;4964264;28;20042;-62
2022/03/13 12:06:41;;;;;;;17.45;11.57;;;16.30;91.80;;;;;;4949417;28;20043;-63
2022/03/13 12:09:14;;;;;;;15.45;11.10;;;16.30;91.10;;;;;;4948360;28;20042;-63
2022/03/13 12:11:59;;;;;;;16.48;10.55;;;16.50;90.40;;;;;;4966237;28;20042;-62
2022/03/13 12:14:44;;;;;;;;;;;16.60;91.10;;;;;;4964390;28;20047;-63
2022/03/13 12:17:13;;;;;;;15.00;9.98;;;16.50;90.40;;;;;;4960483;28;20032;-64
2022/03/13 12:19:39;;;;;;;14.38;10.63;;;16.30;91.30;;;;;;4953820;28;20051;-63
2022/03/13 12:22:05;;;;;;;15.07;10.93;;;17.80;91.60;;;;;;4960518;28;20054;-64
2022/03/13 12:24:32;;;;;;;14.88;11.23;;;16.60;91.00;;;;;;4964263;28;20035;-65
2022/03/13 12:27:01;;;;;;;15.55;10.43;;;16.70;91.10;;;;;;4969141;28;20429;-64
2022/03/13 12:29:29;;;;;;;15.00;9.25;;;16.80;92.00;;;;;;4964126;28;20389;-64
2022/03/13 12:31:57;;;;;;;14.75;10.57;;;16.70;90.70;;;;;;4946358;28;20051;-63
2022/03/13 12:34:32;;;;;;;14.98;10.35;;;16.60;91.00;;;;;;4948388;28;20051;-64
2022/03/13 12:37:01;;;;;;;11.07;7.72;;;16.60;91.70;;;;;;4964571;28;20042;-62
2022/03/13 12:39:28;;;;;;;13.60;8.55;;;16.60;91.30;;;;;;4963031;28;20039;-63
2022/03/13 12:41:56;;;;;;;11.68;8.60;;;16.70;90.90;;;;;;4964650;28;20069;-64